Terminal Aerodrome Forecast
Issued by NWS Tampa Bay Area, FL

Home | Current Version | Previous Version | Text Only | Print | Product List | Glossary On
Versions: 1 2 3 4 5 6 7 8 9 10 11 12 13 14
000
FTUS42 KTBW 301700 RRA
TAFFMY
TAF
KFMY 301743Z 3018/3118 11011KT P6SM FEW035 BKN250
     FM301900 13008KT P6SM VCTS SCT035CB BKN100 BKN250
     FM310200 12004KT P6SM FEW025 BKN250
     FM311400 12009KT P6SM SCT025 BKN250=

USA.gov is the U.S. government's official web portal to all federal, state and local government web resources and services.